createdAt,value
2022-12-08T00:00:17.622Z,6.10
2022-12-08T00:03:07.942Z,6.20
2022-12-08T00:06:16.786Z,6.40
2022-12-08T00:09:26.330Z,5.80
2022-12-08T00:12:18.244Z,5.30
2022-12-08T00:15:10.891Z,5.60
2022-12-08T00:18:02.048Z,6.50
2022-12-08T00:20:58.167Z,5.50
2022-12-08T00:23:48.578Z,6.20
2022-12-08T00:26:39.875Z,6.70
2022-12-08T00:29:31.678Z,7.00
2022-12-08T00:32:23.383Z,6.00
2022-12-08T00:35:14.044Z,5.60
2022-12-08T00:38:05.078Z,5.20
2022-12-08T00:40:56.027Z,4.80
2022-12-08T00:43:47.267Z,3.80
2022-12-08T00:46:38.397Z,3.20
2022-12-08T00:49:28.938Z,3.90
2022-12-08T00:52:19.611Z,3.80
2022-12-08T00:55:12.988Z,3.90
2022-12-08T00:58:03.771Z,3.50
2022-12-08T01:00:54.614Z,3.50
2022-12-08T01:03:45.859Z,2.60
2022-12-08T01:06:38.144Z,1.80
2022-12-08T01:09:29.300Z,1.90
2022-12-08T01:12:20.038Z,1.20
2022-12-08T01:15:11.947Z,1.70
2022-12-08T01:18:02.686Z,1.30
2022-12-08T01:20:53.178Z,1.80
2022-12-08T01:23:43.941Z,1.50
2022-12-08T01:26:33.904Z,2.60
2022-12-08T01:29:25.113Z,1.70
2022-12-08T01:32:15.404Z,1.20
2022-12-08T01:35:06.480Z,1.50
2022-12-08T01:37:57.234Z,2.00
2022-12-08T01:40:47.911Z,1.60
2022-12-08T01:43:58.486Z,1.60
2022-12-08T01:46:49.589Z,1.50
2022-12-08T01:49:40.201Z,3.20
2022-12-08T01:52:37.043Z,1.30
2022-12-08T01:55:32.453Z,1.70
2022-12-08T01:58:26.629Z,2.50
2022-12-08T02:01:17.601Z,3.70
2022-12-08T02:04:08.693Z,4.40
2022-12-08T02:07:06.397Z,4.30
2022-12-08T02:09:59.029Z,5.00
2022-12-08T02:12:52.127Z,6.20
2022-12-08T02:15:48.932Z,5.10
2022-12-08T02:19:14.796Z,4.20
2022-12-08T02:22:06.537Z,5.00
2022-12-08T02:25:05.715Z,5.80
2022-12-08T02:28:12.823Z,5.70
2022-12-08T02:31:12.602Z,6.00
2022-12-08T02:34:26.527Z,6.20
2022-12-08T02:37:25.388Z,6.90
2022-12-08T02:40:22.827Z,6.70
2022-12-08T02:43:21.754Z,6.80
2022-12-08T02:46:17.605Z,7.10
2022-12-08T02:49:09.387Z,7.50
2022-12-08T02:52:21.970Z,6.80
2022-12-08T02:55:20.414Z,8.20
2022-12-08T02:58:42.926Z,6.70
2022-12-08T03:01:54.204Z,7.10
2022-12-08T03:04:55.237Z,6.60
2022-12-08T03:07:54.887Z,7.20
2022-12-08T03:10:48.207Z,8.00
2022-12-08T03:13:43.599Z,8.40
2022-12-08T03:16:38.439Z,8.30
2022-12-08T03:19:32.831Z,6.90
2022-12-08T03:22:26.947Z,7.10
2022-12-08T03:25:20.138Z,7.30
2022-12-08T03:28:10.528Z,7.30
2022-12-08T03:31:06.409Z,8.80
2022-12-08T03:33:59.925Z,10.10
2022-12-08T03:36:49.931Z,8.10
2022-12-08T03:39:39.837Z,7.40
2022-12-08T03:42:29.817Z,8.50
2022-12-08T03:45:20.082Z,8.10
2022-12-08T03:48:10.671Z,8.20
2022-12-08T03:51:00.871Z,7.50
2022-12-08T03:53:51.804Z,8.20
2022-12-08T03:56:41.860Z,9.10
2022-12-08T03:59:32.321Z,8.00
2022-12-08T04:02:22.855Z,7.50
2022-12-08T04:05:13.758Z,7.50
2022-12-08T04:08:04.214Z,8.50
2022-12-08T04:10:54.141Z,8.30
2022-12-08T04:13:45.161Z,8.80
2022-12-08T04:16:34.952Z,9.10
2022-12-08T04:19:24.510Z,7.60
2022-12-08T04:22:14.666Z,7.80
2022-12-08T04:25:05.304Z,7.20
2022-12-08T04:27:56.455Z,8.00
2022-12-08T04:30:47.107Z,7.70
2022-12-08T04:33:37.193Z,9.00
2022-12-08T04:36:27.227Z,8.40
2022-12-08T04:39:17.318Z,9.10
2022-12-08T04:42:07.422Z,9.30
2022-12-08T04:44:57.589Z,8.70
2022-12-08T04:47:47.840Z,10.10
2022-12-08T04:50:40.154Z,9.80
2022-12-08T04:53:30.979Z,10.50
2022-12-08T04:56:21.876Z,10.10
2022-12-08T04:59:11.825Z,10.60
2022-12-08T05:02:02.512Z,9.20
2022-12-08T05:04:53.098Z,8.40
2022-12-08T05:07:43.534Z,7.90
2022-12-08T05:10:34.182Z,6.90
2022-12-08T05:13:24.079Z,6.80
2022-12-08T05:16:16.497Z,7.80
2022-12-08T05:19:07.071Z,8.00
2022-12-08T05:21:57.078Z,9.60
2022-12-08T05:24:47.821Z,10.40
2022-12-08T05:27:39.248Z,11.50
2022-12-08T05:30:29.684Z,10.50
2022-12-08T05:33:20.660Z,10.00
2022-12-08T05:36:13.385Z,11.60
2022-12-08T05:39:04.008Z,9.90
2022-12-08T05:41:54.320Z,9.80
2022-12-08T05:44:44.841Z,11.00
2022-12-08T05:47:36.362Z,10.70
2022-12-08T05:50:26.649Z,10.10
2022-12-08T05:53:19.470Z,9.20
2022-12-08T05:56:12.249Z,9.50
2022-12-08T05:59:02.535Z,7.70
2022-12-08T06:01:52.818Z,7.30
2022-12-08T06:04:43.364Z,7.40
2022-12-08T06:07:33.552Z,7.30
2022-12-08T06:10:23.694Z,10.30
2022-12-08T06:13:14.629Z,9.80
2022-12-08T06:16:08.360Z,8.10
2022-12-08T06:18:58.678Z,8.60
2022-12-08T06:21:49.013Z,8.30
2022-12-08T06:24:39.468Z,7.10
2022-12-08T06:27:30.403Z,8.80
2022-12-08T06:30:21.471Z,9.60
2022-12-08T06:33:11.974Z,9.60
2022-12-08T06:36:03.090Z,10.70
2022-12-08T06:38:53.215Z,10.30
2022-12-08T06:41:57.342Z,9.00
2022-12-08T06:44:47.908Z,8.00
2022-12-08T06:47:37.916Z,9.10
2022-12-08T06:50:28.785Z,9.80
2022-12-08T06:53:19.654Z,9.20
2022-12-08T06:56:11.302Z,7.20
2022-12-08T06:59:02.138Z,7.80
2022-12-08T07:01:52.586Z,10.50
2022-12-08T07:04:43.536Z,9.20
2022-12-08T07:07:34.128Z,8.30
2022-12-08T07:10:24.551Z,8.70
2022-12-08T07:13:14.711Z,7.30
2022-12-08T07:16:09.133Z,7.50
2022-12-08T07:18:59.397Z,8.40
2022-12-08T07:21:49.552Z,9.50
2022-12-08T07:24:40.041Z,8.90
2022-12-08T07:27:29.819Z,11.90
2022-12-08T07:30:20.476Z,11.60
2022-12-08T07:33:10.667Z,12.20
2022-12-08T07:36:02.429Z,12.80
2022-12-08T07:38:54.401Z,11.50
2022-12-08T07:41:44.774Z,12.00
2022-12-08T07:44:35.358Z,11.10
2022-12-08T07:47:25.549Z,11.60
2022-12-08T07:50:15.538Z,13.30
2022-12-08T07:53:05.741Z,10.70
2022-12-08T07:55:55.654Z,10.10
2022-12-08T07:58:46.930Z,9.60
2022-12-08T08:01:37.460Z,9.70
2022-12-08T08:04:27.760Z,9.60
2022-12-08T08:07:18.048Z,10.10
2022-12-08T08:10:10.060Z,10.30
2022-12-08T08:13:02.992Z,9.80
2022-12-08T08:15:53.153Z,8.30
2022-12-08T08:18:43.619Z,8.30
2022-12-08T08:21:48.664Z,9.40
2022-12-08T08:24:43.222Z,9.50
2022-12-08T08:27:35.379Z,11.00
2022-12-08T08:30:26.023Z,12.40
2022-12-08T08:33:16.577Z,10.30
2022-12-08T08:36:10.632Z,8.00
2022-12-08T08:39:01.149Z,13.30
2022-12-08T08:41:51.163Z,10.20
2022-12-08T08:44:41.535Z,10.60
2022-12-08T08:47:31.361Z,11.30
2022-12-08T08:50:21.400Z,11.20
2022-12-08T08:53:12.064Z,12.10
2022-12-08T08:56:03.453Z,15.00
2022-12-08T08:58:55.203Z,13.50
2022-12-08T09:01:45.109Z,10.40
2022-12-08T09:04:36.063Z,10.40
2022-12-08T09:07:26.538Z,11.00
2022-12-08T09:10:17.783Z,10.90
2022-12-08T09:13:07.683Z,10.40
2022-12-08T09:15:58.139Z,11.00
2022-12-08T09:18:49.619Z,12.30
2022-12-08T09:21:40.755Z,9.30
2022-12-08T09:24:30.722Z,8.70
2022-12-08T09:27:21.714Z,9.20
2022-12-08T09:30:14.869Z,9.60
2022-12-08T09:33:05.296Z,8.00
2022-12-08T09:35:55.497Z,8.90
2022-12-08T09:38:46.697Z,7.50
2022-12-08T09:41:44.771Z,8.10
2022-12-08T09:44:57.447Z,7.80
2022-12-08T09:47:55.882Z,7.90
2022-12-08T09:50:52.899Z,9.90
2022-12-08T09:53:50.272Z,10.10
2022-12-08T09:56:41.016Z,8.30
2022-12-08T09:59:33.804Z,8.50
2022-12-08T10:02:26.709Z,7.90
2022-12-08T10:05:17.850Z,7.40
2022-12-08T10:08:18.277Z,7.30
2022-12-08T10:11:15.093Z,7.90
2022-12-08T10:14:16.917Z,8.80
2022-12-08T10:17:14.489Z,8.20
2022-12-08T10:20:11.837Z,7.50
2022-12-08T10:23:10.589Z,7.20
2022-12-08T10:26:05.655Z,7.30
2022-12-08T10:29:01.247Z,10.80
2022-12-08T10:31:51.125Z,7.00
2022-12-08T10:35:02.798Z,6.70
2022-12-08T10:38:00.774Z,7.90
2022-12-08T10:40:53.041Z,8.40
2022-12-08T10:43:49.057Z,6.70
2022-12-08T10:46:41.345Z,6.80
2022-12-08T10:49:35.619Z,7.50
2022-12-08T10:52:27.071Z,7.80
2022-12-08T10:55:19.926Z,7.70
2022-12-08T10:58:27.010Z,8.20
2022-12-08T11:01:22.096Z,7.20
2022-12-08T11:04:18.452Z,7.30
2022-12-08T11:07:11.800Z,7.60
2022-12-08T11:10:03.292Z,8.20
2022-12-08T11:12:53.414Z,7.00
2022-12-08T11:15:45.879Z,6.60
2022-12-08T11:18:45.093Z,7.10
2022-12-08T11:21:38.708Z,6.60
2022-12-08T11:24:36.056Z,6.10
2022-12-08T11:27:28.181Z,7.20
2022-12-08T11:30:21.072Z,6.90
2022-12-08T11:33:18.799Z,7.10
2022-12-08T11:36:14.191Z,7.10
2022-12-08T11:39:07.843Z,6.30
2022-12-08T11:42:01.102Z,8.50
2022-12-08T11:44:56.539Z,8.10
2022-12-08T11:47:55.986Z,6.30
2022-12-08T11:50:53.126Z,6.10
2022-12-08T11:53:53.795Z,7.60
2022-12-08T11:56:48.637Z,6.90
2022-12-08T11:59:44.574Z,5.80
2022-12-08T12:02:42.848Z,6.60
2022-12-08T12:09:05.915Z,6.00
2022-12-08T12:12:17.035Z,6.70
2022-12-08T12:15:49.903Z,7.00
2022-12-08T12:18:46.659Z,6.00
2022-12-08T12:21:40.977Z,6.50
2022-12-08T12:24:39.825Z,7.50
2022-12-08T12:27:37.102Z,6.40
2022-12-08T12:30:29.624Z,6.70
2022-12-08T12:33:21.686Z,7.10
2022-12-08T12:36:15.230Z,6.10
2022-12-08T12:39:06.425Z,7.20
2022-12-08T12:41:59.440Z,7.40
2022-12-08T12:45:10.159Z,7.20
2022-12-08T12:48:22.116Z,7.00
2022-12-08T12:51:45.608Z,5.80
2022-12-08T12:54:36.560Z,5.10
2022-12-08T12:57:36.738Z,6.00
2022-12-08T13:00:29.348Z,6.20
2022-12-08T13:03:20.930Z,6.90
2022-12-08T13:06:14.928Z,7.80
2022-12-08T13:09:07.378Z,8.10
2022-12-08T13:12:01.412Z,6.90
2022-12-08T13:14:56.028Z,6.70
2022-12-08T13:17:49.471Z,6.00
2022-12-08T13:20:48.530Z,6.30
2022-12-08T13:23:50.932Z,6.80
2022-12-08T13:26:47.227Z,7.70
2022-12-08T13:29:38.987Z,7.50
2022-12-08T13:36:24.171Z,7.80
2022-12-08T13:39:21.894Z,9.10
2022-12-08T13:42:21.550Z,11.60
2022-12-08T13:45:39.748Z,9.80
2022-12-08T13:49:36.600Z,8.70
2022-12-08T13:58:17.263Z,8.40
2022-12-08T14:01:13.406Z,8.60
2022-12-08T14:04:34.228Z,8.70
2022-12-08T14:07:16.326Z,9.90
2022-12-08T14:10:09.006Z,8.40
2022-12-08T14:13:02.310Z,8.10
2022-12-08T14:15:52.897Z,9.10
2022-12-08T14:18:43.520Z,8.80
2022-12-08T14:21:36.387Z,10.00
2022-12-08T14:24:29.066Z,8.00
2022-12-08T14:27:21.961Z,6.60
2022-12-08T14:30:21.623Z,7.70
2022-12-08T14:33:17.035Z,8.00
2022-12-08T14:36:11.013Z,9.30
2022-12-08T14:39:01.812Z,7.90
2022-12-08T14:42:03.616Z,8.70
2022-12-08T14:45:02.480Z,6.70
2022-12-08T14:47:52.963Z,7.30
2022-12-08T14:50:57.637Z,7.40
2022-12-08T14:53:54.695Z,6.90
2022-12-08T14:56:52.143Z,8.60
2022-12-08T14:59:44.058Z,7.00
2022-12-08T15:02:35.837Z,8.80
2022-12-08T15:05:30.740Z,6.80
2022-12-08T15:08:21.502Z,7.80
2022-12-08T15:11:28.869Z,8.70
2022-12-08T15:14:34.864Z,7.70
2022-12-08T15:17:42.103Z,8.80
2022-12-08T15:20:41.413Z,8.20
2022-12-08T15:23:33.711Z,6.90
2022-12-08T15:26:25.678Z,7.80
2022-12-08T15:29:20.727Z,6.10
2022-12-08T15:32:14.493Z,6.00
2022-12-08T15:35:04.909Z,6.90
2022-12-08T15:37:55.216Z,6.30
2022-12-08T15:40:46.276Z,7.00
2022-12-08T15:43:37.603Z,7.90
2022-12-08T15:46:28.855Z,8.30
2022-12-08T15:49:23.059Z,8.80
2022-12-08T15:52:17.632Z,7.90
2022-12-08T15:55:13.353Z,8.10
2022-12-08T15:58:51.835Z,8.50
2022-12-08T16:01:15.388Z,8.90
2022-12-08T16:04:37.246Z,7.90
2022-12-08T16:07:23.495Z,8.40
2022-12-08T16:10:19.926Z,9.00
2022-12-08T16:13:56.646Z,9.20
2022-12-08T16:16:44.946Z,9.90
2022-12-08T16:19:35.552Z,11.00
2022-12-08T16:26:09.056Z,12.20
2022-12-08T16:28:54.377Z,11.00
2022-12-08T16:31:45.482Z,12.80
2022-12-08T16:34:35.865Z,12.90
2022-12-08T16:37:28.868Z,13.50
2022-12-08T16:40:20.058Z,17.20
2022-12-08T16:43:12.206Z,17.90
2022-12-08T16:46:03.380Z,15.20
2022-12-08T16:48:53.437Z,15.20
2022-12-08T16:51:45.186Z,14.10
2022-12-08T16:54:36.229Z,14.10
2022-12-08T16:57:26.512Z,14.30
2022-12-08T17:00:20.690Z,14.10
2022-12-08T17:03:15.177Z,13.10
2022-12-08T17:06:09.131Z,15.00
2022-12-08T17:08:59.191Z,15.80
2022-12-08T17:11:49.651Z,17.70
2022-12-08T17:14:40.410Z,15.80
2022-12-08T17:17:30.888Z,14.20
2022-12-08T17:20:23.397Z,13.00
2022-12-08T17:23:13.494Z,14.30
2022-12-08T17:26:04.165Z,16.00
2022-12-08T17:29:01.930Z,12.20
2022-12-08T17:31:51.652Z,13.80
2022-12-08T17:34:41.168Z,12.10
2022-12-08T17:37:32.708Z,13.50
2022-12-08T17:40:26.861Z,17.20
2022-12-08T17:43:18.912Z,16.70
2022-12-08T17:46:09.376Z,18.00
2022-12-08T17:49:00.206Z,17.30
2022-12-08T17:51:51.972Z,18.90
2022-12-08T17:54:42.497Z,21.90
2022-12-08T17:57:32.498Z,23.00
2022-12-08T18:00:23.372Z,20.70
2022-12-08T18:03:13.540Z,18.80
2022-12-08T18:06:09.093Z,18.70
2022-12-08T18:08:59.692Z,20.70
2022-12-08T18:11:50.788Z,24.00
2022-12-08T18:14:41.518Z,38.20
2022-12-08T18:17:32.353Z,34.50
2022-12-08T18:20:22.852Z,42.90
2022-12-08T18:23:13.885Z,54.80
2022-12-08T18:26:04.920Z,56.40
2022-12-08T18:28:55.320Z,43.50
2022-12-08T18:31:45.452Z,32.40
2022-12-08T18:34:36.357Z,22.90
2022-12-08T18:37:26.372Z,16.90
2022-12-08T18:40:19.261Z,12.40
2022-12-08T18:43:09.750Z,11.30
2022-12-08T18:46:06.058Z,10.80
2022-12-08T18:48:56.624Z,10.50
2022-12-08T18:51:47.147Z,10.00
2022-12-08T18:55:05.383Z,10.60
2022-12-08T18:57:47.709Z,11.50
2022-12-08T19:00:38.202Z,11.70
2022-12-08T19:03:28.775Z,11.20
2022-12-08T19:06:19.277Z,10.30
2022-12-08T19:09:10.135Z,11.50
2022-12-08T19:12:00.018Z,11.40
2022-12-08T19:14:50.839Z,11.20
2022-12-08T19:17:41.556Z,12.60
2022-12-08T19:20:32.251Z,10.90
2022-12-08T19:23:22.635Z,11.70
2022-12-08T19:26:14.770Z,11.90
2022-12-08T19:29:04.975Z,12.40
2022-12-08T19:31:55.232Z,13.30
2022-12-08T19:34:45.092Z,11.00
2022-12-08T19:37:35.677Z,13.10
2022-12-08T19:40:43.702Z,11.60
2022-12-08T19:43:48.064Z,12.40
2022-12-08T19:46:40.575Z,11.70
2022-12-08T19:49:31.228Z,13.50
2022-12-08T19:52:22.385Z,12.80
2022-12-08T19:55:13.858Z,12.90
2022-12-08T19:58:04.266Z,12.40
2022-12-08T20:00:56.869Z,12.50
2022-12-08T20:03:47.488Z,12.10
2022-12-08T20:06:38.028Z,12.60
2022-12-08T20:09:28.466Z,11.10
2022-12-08T20:12:18.397Z,11.60
2022-12-08T20:15:11.196Z,12.00
2022-12-08T20:18:03.170Z,11.30
2022-12-08T20:20:53.718Z,12.80
2022-12-08T20:23:45.900Z,12.30
2022-12-08T20:26:35.897Z,12.60
2022-12-08T20:29:26.374Z,11.90
2022-12-08T20:32:17.078Z,12.00
2022-12-08T20:35:10.187Z,14.90
2022-12-08T20:38:00.862Z,12.20
2022-12-08T20:40:51.717Z,13.60
2022-12-08T20:43:42.413Z,13.10
2022-12-08T20:46:34.659Z,11.00
2022-12-08T20:49:29.755Z,11.40
2022-12-08T20:52:23.385Z,12.30
2022-12-08T20:55:13.985Z,11.90
2022-12-08T20:58:04.404Z,12.20
2022-12-08T21:00:54.813Z,12.30
2022-12-08T21:03:45.510Z,12.50
2022-12-08T21:06:36.393Z,11.30
2022-12-08T21:09:27.007Z,11.70
2022-12-08T21:12:18.471Z,11.60
2022-12-08T21:15:12.856Z,12.30
2022-12-08T21:18:03.638Z,15.20
2022-12-08T21:20:55.007Z,13.60
2022-12-08T21:23:45.364Z,11.40
2022-12-08T21:26:35.154Z,13.10
2022-12-08T21:29:25.456Z,12.50
2022-12-08T21:32:15.419Z,11.50
2022-12-08T21:35:06.803Z,11.80
2022-12-08T21:37:56.809Z,10.90
2022-12-08T21:40:47.607Z,12.00
2022-12-08T21:43:38.857Z,13.20
2022-12-08T21:46:28.726Z,13.00
2022-12-08T21:49:19.875Z,12.50
2022-12-08T21:52:09.810Z,11.60
2022-12-08T21:55:00.336Z,12.30
2022-12-08T21:57:50.890Z,11.20
2022-12-08T22:00:41.379Z,12.40
2022-12-08T22:03:32.019Z,12.40
2022-12-08T22:06:22.505Z,13.20
2022-12-08T22:09:13.677Z,12.40
2022-12-08T22:12:04.307Z,12.10
2022-12-08T22:14:54.478Z,13.40
2022-12-08T22:17:45.642Z,12.70
2022-12-08T22:20:40.852Z,12.50
2022-12-08T22:23:33.436Z,12.30
2022-12-08T22:26:23.364Z,12.80
2022-12-08T22:29:13.350Z,11.70
2022-12-08T22:32:03.548Z,11.40
2022-12-08T22:34:54.071Z,11.40
2022-12-08T22:37:44.039Z,11.20
2022-12-08T22:40:34.204Z,12.90
2022-12-08T22:43:24.769Z,12.30
2022-12-08T22:46:18.611Z,11.90
2022-12-08T22:49:08.801Z,11.10
2022-12-08T22:51:59.132Z,10.20
2022-12-08T22:54:48.908Z,10.50
2022-12-08T22:57:38.986Z,10.50
2022-12-08T23:00:29.987Z,9.10
2022-12-08T23:03:20.321Z,10.40
2022-12-08T23:06:17.055Z,10.30
2022-12-08T23:09:08.659Z,9.20
2022-12-08T23:11:59.650Z,9.20
2022-12-08T23:14:49.984Z,9.30
2022-12-08T23:17:39.994Z,9.00
2022-12-08T23:20:30.273Z,8.80
2022-12-08T23:23:19.998Z,8.00
2022-12-08T23:26:17.554Z,8.70
2022-12-08T23:29:07.728Z,8.30
2022-12-08T23:31:57.850Z,9.40
2022-12-08T23:34:48.079Z,9.20
2022-12-08T23:37:38.352Z,9.20
2022-12-08T23:40:28.974Z,7.50
2022-12-08T23:43:18.832Z,7.50
2022-12-08T23:46:09.789Z,8.50
2022-12-08T23:49:00.872Z,8.80
2022-12-08T23:51:50.491Z,7.90
2022-12-08T23:54:41.455Z,8.30
2022-12-08T23:57:31.173Z,7.50
